Time;durP1;ratioP1;P1;durP2;ratioP2;P2;SDS_P1;SDS_P2;PMS_P1;PMS_P2;Temp;Humidity;BMP_temperature;BMP_pressure;BME280_temperature;BME280_humidity;BME280_pressure;Samples;Min_cycle;Max_cycle;Signal;HPM_P1;HPM_P2
2022/02/03 00:00:15;;;;;;;;;6.25;6.25;;;;;11.42;59.76;101927.94;5040088;28;47202;-48
2022/02/03 00:02:50;;;;;;;;;8.75;7.25;;;;;11.43;59.50;101930.56;5039344;28;45205;-48
2022/02/03 00:05:22;;;;;;;;;7.75;6.25;;;;;11.41;59.57;101916.53;5040595;28;45425;-48
2022/02/03 00:24:31;;;;;;;;;7.50;6.00;;;;;11.34;59.50;101897.22;5040227;28;45205;-44
2022/02/03 00:27:38;;;;;;;;;6.50;4.75;;;;;11.32;59.62;101885.81;5039030;28;45338;-43
2022/02/03 00:30:10;;;;;;;;;3.75;3.25;;;;;11.33;59.31;101892.84;5033775;28;45444;-45
2022/02/03 00:32:50;;;;;;;;;6.25;6.00;;;;;11.24;59.54;101870.91;5039894;28;46314;-48
2022/02/03 00:48:44;;;;;;;;;4.00;4.00;;;;;11.23;59.40;101891.06;5039958;28;45469;-45
2022/02/03 00:51:10;;;;;;;;;6.00;4.00;;;;;11.23;59.34;101891.06;5039719;28;45241;-47
2022/02/03 00:53:37;;;;;;;;;6.00;5.00;;;;;11.22;59.42;101882.31;5038322;28;45339;-47
2022/02/03 00:56:08;;;;;;;;;6.75;6.00;;;;;11.22;59.30;101886.69;5039677;28;45218;-47
2022/02/03 00:58:40;;;;;;;;;6.75;6.00;;;;;11.20;59.37;101891.94;5039806;28;45339;-45
2022/02/03 01:01:08;;;;;;;;;5.25;4.25;;;;;11.19;59.40;101873.53;5038308;28;45359;-46
2022/02/03 01:03:33;;;;;;;;;6.50;4.75;;;;;11.19;59.43;101884.03;5039690;28;46260;-45
2022/02/03 01:06:01;;;;;;;;;6.00;5.75;;;;;11.16;59.31;101878.78;5039730;28;45176;-44
2022/02/03 01:08:28;;;;;;;;;4.75;4.75;;;;;11.17;59.39;101877.91;5039941;28;45265;-47
2022/02/03 01:11:10;;;;;;;;;8.25;5.00;;;;;11.18;59.38;101884.91;5039540;28;45595;-45
2022/02/03 01:13:48;;;;;;;;;4.00;4.00;;;;;11.18;59.31;101879.66;5039606;28;45204;-46
2022/02/03 01:43:45;;;;;;;;;5.25;4.25;;;;;10.94;59.23;101877.88;5039300;28;45369;-49
2022/02/03 01:46:16;;;;;;;;;5.25;5.00;;;;;10.94;59.24;101881.34;5038915;28;46214;-48
2022/02/03 01:54:02;;;;;;;;;4.00;3.00;;;;;10.89;59.05;101875.22;5039137;28;45437;-47
2022/02/03 01:56:35;;;;;;;;;5.00;5.00;;;;;10.90;59.21;101874.34;5037602;28;48650;-46
2022/02/03 01:59:03;;;;;;;;;4.00;3.75;;;;;10.86;59.13;101867.34;5039024;28;45411;-44
2022/02/03 02:01:32;;;;;;;;;4.00;4.00;;;;;10.88;59.11;101868.22;5038622;28;45386;-46
2022/02/03 02:04:15;;;;;;;;;4.50;4.00;;;;;10.87;59.21;101869.97;5040231;28;45362;-42
2022/02/03 02:06:55;;;;;;;;;4.75;4.00;;;;;10.87;59.11;101858.56;5042276;28;45487;-46
2022/02/03 02:10:01;;;;;;;;;2.00;2.00;;;;;10.82;59.19;101861.19;5042015;28;45214;-44
2022/02/03 02:12:34;;;;;;;;;6.00;6.00;;;;;10.81;59.20;101855.94;5042454;28;45441;-43
2022/02/03 02:42:40;;;;;;;;;8.25;6.00;;;;;10.51;59.08;101812.91;5040689;28;45361;-45
2022/02/03 02:45:15;;;;;;;;;4.25;3.25;;;;;10.47;58.91;101800.63;5041604;28;45328;-44
2022/02/03 02:47:44;;;;;;;;;4.00;4.00;;;;;10.46;59.13;101785.72;5040826;28;45394;-45
2022/02/03 02:50:14;;;;;;;;;6.25;5.75;;;;;10.41;59.10;101775.19;5041355;28;46254;-46
2022/02/03 02:52:53;;;;;;;;;2.00;2.00;;;;;10.43;58.94;101762.06;5041708;28;45303;-47
2022/02/03 03:34:15;;;;;;;;;5.00;4.50;;;;;10.29;58.84;101647.28;5040855;28;45223;-44
2022/02/03 03:36:30;;;;;;;;;9.50;6.75;;;;;10.29;59.07;101654.25;5040587;28;45288;-44
2022/02/03 03:38:57;;;;;;;;;4.75;4.75;;;;;10.28;59.03;101648.16;5040966;28;45258;-46
2022/02/03 03:41:26;;;;;;;;;4.75;4.50;;;;;10.24;59.14;101636.75;5039401;28;45227;-43
2022/02/03 03:44:02;;;;;;;;;6.50;6.50;;;;;10.34;58.88;101652.50;5040654;28;45405;-44
2022/02/03 03:46:33;;;;;;;;;9.25;6.25;;;;;10.32;59.00;101644.63;5040745;28;45419;-45
2022/02/03 03:49:21;;;;;;;;;5.25;4.75;;;;;10.35;58.88;101654.28;5041001;28;45322;-47
2022/02/03 03:51:58;;;;;;;;;9.00;5.50;;;;;10.35;58.95;101652.53;5040624;28;45256;-47
2022/02/03 03:54:35;;;;;;;;;7.50;6.25;;;;;10.35;58.92;101643.75;5032157;28;46389;-45
2022/02/03 04:52:31;;;;;;;;;5.50;4.75;;;;;10.30;59.03;101570.22;5039660;28;45254;-45
2022/02/03 05:04:53;;;;;;;;;3.00;3.00;;;;;10.22;59.13;101561.44;4997801;28;45325;-43
2022/02/03 05:13:26;;;;;;;;;6.50;6.25;;;;;10.24;59.02;101531.69;5039519;28;45232;-43
2022/02/03 05:44:27;;;;;;;;;7.75;7.00;;;;;10.01;59.44;101523.81;5042834;28;45334;-45
2022/02/03 06:03:14;;;;;;;;;11.00;8.00;;;;;9.88;59.27;101533.41;5042382;28;45675;-45
2022/02/03 06:08:53;;;;;;;;;6.25;5.75;;;;;9.85;59.27;101522.91;5008713;28;45330;-43
2022/02/03 06:17:27;;;;;;;;;11.00;9.50;;;;;9.80;59.23;101497.50;5062049;28;45228;-42
2022/02/03 06:22:39;;;;;;;;;10.25;8.25;;;;;9.80;59.23;101484.38;5062347;28;45365;-43
2022/02/03 06:27:50;;;;;;;;;12.25;10.75;;;;;9.69;59.40;101464.25;5061921;27;45711;-47
2022/02/03 06:30:20;;;;;;;;;14.00;12.50;;;;;9.74;59.42;101461.66;5062098;28;45300;-44
2022/02/03 06:32:46;;;;;;;;;12.25;9.25;;;;;9.72;59.18;101464.28;5062111;28;45480;-44
2022/02/03 06:35:13;;;;;;;;;11.25;11.25;;;;;9.74;59.42;101474.75;5061866;28;45274;-43
2022/02/03 06:37:39;;;;;;;;;8.00;8.00;;;;;9.73;59.20;101481.75;5062129;28;45314;-44
2022/02/03 06:40:09;;;;;;;;;11.75;11.75;;;;;9.74;59.25;101473.00;5061813;28;45463;-43
2022/02/03 06:42:34;;;;;;;;;16.00;11.50;;;;;9.71;59.26;101461.63;5062156;28;45345;-43
2022/02/03 06:45:10;;;;;;;;;11.75;11.75;;;;;9.67;59.52;101459.88;5061598;28;46258;-43
2022/02/03 06:47:51;;;;;;;;;12.25;11.00;;;;;9.63;59.39;101450.25;5061966;28;45348;-43
2022/02/03 06:50:22;;;;;;;;;13.25;11.75;;;;;9.66;59.34;101458.13;5061786;28;45331;-44
2022/02/03 06:55:47;;;;;;;;;16.00;14.75;;;;;9.61;59.60;101447.63;5041017;28;45343;-48
2022/02/03 07:00:50;;;;;;;;;18.25;14.25;;;;;9.57;59.30;101433.63;5041464;28;45320;-43
2022/02/03 07:03:20;;;;;;;;;11.50;9.75;;;;;9.57;59.54;101435.38;5041197;28;45530;-44
2022/02/03 07:05:46;;;;;;;;;13.25;12.75;;;;;9.59;59.47;101436.25;5041349;28;46919;-44
2022/02/03 07:08:15;;;;;;;;;15.50;13.75;;;;;9.49;59.55;101431.88;5041221;28;45221;-48
2022/02/03 07:10:41;;;;;;;;;14.00;11.75;;;;;9.53;59.73;101428.38;5041473;28;45391;-44
2022/02/03 07:13:07;;;;;;;;;15.25;13.00;;;;;9.51;59.61;101437.97;5041191;28;45409;-44
2022/02/03 07:15:33;;;;;;;;;15.00;13.75;;;;;9.52;59.46;101444.97;5040988;28;47121;-44
2022/02/03 07:17:59;;;;;;;;;11.75;11.25;;;;;9.51;59.37;101445.84;5041183;28;45252;-46
2022/02/03 07:20:26;;;;;;;;;12.00;12.00;;;;;9.51;59.48;101458.97;5041426;28;45276;-44
2022/02/03 07:22:52;;;;;;;;;12.25;12.00;;;;;9.51;59.62;101453.72;5041270;28;45337;-43
2022/02/03 07:25:17;;;;;;;;;13.25;12.75;;;;;9.52;59.44;101444.97;5041050;28;46287;-45
2022/02/03 07:27:43;;;;;;;;;12.25;11.75;;;;;9.50;59.51;101447.63;5041115;28;45350;-45
2022/02/03 07:30:10;;;;;;;;;14.25;12.50;;;;;9.50;59.62;101452.00;5039935;28;45519;-44
2022/02/03 07:32:35;;;;;;;;;14.25;12.75;;;;;9.44;59.39;101452.84;5039747;28;45431;-46
2022/02/03 07:35:01;;;;;;;;;17.75;13.50;;;;;9.47;59.52;101454.59;5039576;28;46026;-45
2022/02/03 07:37:27;;;;;;;;;14.75;13.00;;;;;9.46;59.47;101463.34;5040884;28;45477;-45
2022/02/03 07:39:54;;;;;;;;;14.25;13.00;;;;;9.44;59.61;101471.22;5040861;28;45367;-43
2022/02/03 07:42:19;;;;;;;;;13.25;13.25;;;;;9.44;59.45;101453.72;5040928;28;45330;-45
2022/02/03 07:44:45;;;;;;;;;31.75;28.50;;;;;9.41;59.65;101463.34;5040524;28;46147;-45
2022/02/03 07:47:10;;;;;;;;;15.50;15.50;;;;;9.42;59.54;101455.47;5040752;28;45224;-45
2022/02/03 07:49:36;;;;;;;;;13.25;13.25;;;;;9.40;59.24;101454.59;5040785;28;45185;-47
2022/02/03 07:52:03;;;;;;;;;10.25;8.00;;;;;9.41;59.41;101458.97;5040713;28;45223;-43
2022/02/03 07:54:31;;;;;;;;;13.50;12.00;;;;;9.41;59.70;101458.97;5039334;28;46788;-45
2022/02/03 07:56:56;;;;;;;;;13.25;11.75;;;;;9.36;59.83;101460.72;5040498;28;45372;-44
2022/02/03 07:59:22;;;;;;;;;16.00;13.75;;;;;9.35;59.60;101463.34;5040393;28;45299;-44
2022/02/03 08:01:47;;;;;;;;;15.00;15.00;;;;;9.31;59.73;101472.94;5040038;28;45281;-47
2022/02/03 08:04:12;;;;;;;;;10.75;10.75;;;;;9.26;59.52;101461.56;5039215;28;47084;-43
2022/02/03 08:06:43;;;;;;;;;18.50;17.75;;;;;9.25;59.77;101446.69;5040437;28;45316;-45
2022/02/03 08:09:21;;;;;;;;;17.25;16.00;;;;;9.24;59.53;101458.03;5040538;28;45217;-44
2022/02/03 08:11:49;;;;;;;;;16.25;14.00;;;;;9.21;59.56;101455.44;5040318;28;45906;-48
2022/02/03 08:14:22;;;;;;;;;12.50;11.50;;;;;9.17;59.33;101456.28;5040358;28;47135;-44
2022/02/03 08:19:22;;;;;;;;;16.00;14.75;;;;;9.16;59.83;101459.78;5040256;28;45229;-44
2022/02/03 08:21:57;;;;;;;;;23.00;17.25;;;;;9.15;59.69;101451.03;5040234;28;45332;-43
2022/02/03 08:24:30;;;;;;;;;14.25;14.25;;;;;9.13;59.76;101463.25;5039905;28;46039;-44
2022/02/03 08:32:26;;;;;;;;;15.75;14.00;;;;;9.09;59.90;101466.75;5039936;28;45178;-44
2022/02/03 08:37:23;;;;;;;;;11.50;11.00;;;;;9.10;59.59;101458.88;5039888;28;45181;-44
2022/02/03 08:39:54;;;;;;;;;16.00;16.00;;;;;9.12;59.60;101456.28;5039757;28;45273;-43
2022/02/03 08:42:20;;;;;;;;;12.00;12.00;;;;;9.14;59.62;101459.75;5039922;28;45358;-43
2022/02/03 08:44:46;;;;;;;;;13.00;12.75;;;;;9.18;59.73;101452.78;5039752;28;45343;-47
2022/02/03 08:47:12;;;;;;;;;17.75;16.75;;;;;9.19;59.60;101462.41;5039870;28;45302;-44
2022/02/03 08:49:41;;;;;;;;;15.00;15.00;;;;;9.20;59.63;101443.19;5039820;28;45162;-44
2022/02/03 08:52:15;;;;;;;;;15.75;13.50;;;;;9.20;59.80;101443.19;5039634;28;45372;-46
2022/02/03 08:54:48;;;;;;;;;17.50;14.75;;;;;9.21;59.25;101445.81;5039380;28;46919;-45
2022/02/03 08:57:20;;;;;;;;;13.25;12.75;;;;;9.21;59.87;101440.56;5039893;28;45241;-45
2022/02/03 09:57:29;;;;;;;;;17.75;15.00;;;;;9.21;60.26;101409.09;5055366;28;45330;-44
2022/02/03 09:59:15;;;;;;;;;16.25;15.50;;;;;9.22;60.14;101400.34;5060725;28;45577;-43
2022/02/03 10:01:54;;;;;;;;;18.50;15.00;;;;;9.22;60.17;101386.34;5061226;28;45551;-44
2022/02/03 10:04:50;;;;;;;;;14.00;13.75;;;;;9.24;60.39;101380.25;5050078;28;45339;-45
2022/02/03 10:07:24;;;;;;;;;16.00;15.50;;;;;9.26;60.27;101377.63;5039894;28;45395;-42
2022/02/03 10:09:53;;;;;;;;;14.00;14.00;;;;;9.28;60.10;101383.72;5039390;28;46183;-42
2022/02/03 10:12:32;;;;;;;;;15.75;14.75;;;;;9.30;60.21;101382.00;5039838;28;45424;-42
2022/02/03 10:14:57;;;;;;;;;18.00;14.75;;;;;9.30;60.26;101374.13;5041319;28;45407;-45
2022/02/03 10:17:57;;;;;;;;;10.25;10.25;;;;;9.29;60.33;101380.25;5040870;28;45466;-44
2022/02/03 10:20:26;;;;;;;;;15.00;11.75;;;;;9.30;60.12;101382.00;5028670;28;48530;-43
2022/02/03 10:22:56;;;;;;;;;13.75;11.25;;;;;9.31;60.11;101375.88;5040889;28;45239;-44
2022/02/03 10:25:27;;;;;;;;;17.75;13.75;;;;;9.37;60.18;101378.53;5040468;28;45326;-45
2022/02/03 10:28:00;;;;;;;;;15.75;12.00;;;;;9.39;60.11;101379.38;5040839;28;45512;-47
2022/02/03 10:30:34;;;;;;;;;17.75;15.00;;;;;9.41;60.00;101387.28;5040149;28;46648;-48
2022/02/03 10:33:00;;;;;;;;;12.75;12.75;;;;;9.40;60.00;101382.91;5040877;28;45240;-44
2022/02/03 10:35:35;;;;;;;;;16.00;15.25;;;;;9.43;60.00;101383.78;5040723;28;45621;-43
2022/02/03 10:38:07;;;;;;;;;14.75;12.75;;;;;9.49;59.74;101382.03;5039495;27;45312;-44
2022/02/03 10:40:52;;;;;;;;;14.00;13.67;;;;;9.50;60.11;101378.53;4996914;28;1187849;-44
2022/02/03 10:43:49;;;;;;;;;13.50;13.00;;;;;9.52;60.15;101396.03;5041677;28;45398;-44
2022/02/03 10:57:35;;;;;;;;;14.25;14.00;;;;;9.59;60.25;101407.38;5030266;28;45631;-42
2022/02/03 11:00:14;;;;;;;;;17.00;11.00;;;;;9.59;60.06;101400.38;5040934;28;45617;-44
2022/02/03 11:10:31;;;;;;;;;19.00;16.75;;;;;9.66;60.16;101371.50;5041145;28;45347;-43
2022/02/03 11:12:57;;;;;;;;;16.25;15.00;;;;;9.69;59.85;101377.63;5039823;28;48155;-43
2022/02/03 11:15:27;;;;;;;;;15.25;15.00;;;;;9.71;60.00;101365.41;5041084;28;45223;-48
2022/02/03 11:17:55;;;;;;;;;21.25;17.50;;;;;9.74;59.78;101354.88;5041197;28;45326;-44
2022/02/03 11:20:24;;;;;;;;;20.25;19.75;;;;;9.75;59.89;101343.53;5039931;28;45287;-43
2022/02/03 11:23:08;;;;;;;;;18.25;16.00;;;;;9.79;59.76;101340.91;5040801;28;46243;-41
2022/02/03 11:34:31;;;;;;;;;24.75;22.25;;;;;9.77;59.43;101314.63;5040650;28;45835;-46
2022/02/03 12:04:38;;;;;;;;;26.00;21.00;;;;;9.97;59.72;101287.47;5040126;28;45336;-46
2022/02/03 12:10:31;;;;;;;;;26.25;18.00;;;;;9.98;59.59;101289.22;5039874;28;45248;-46
2022/02/03 12:13:36;;;;;;;;;23.00;18.50;;;;;10.00;59.90;101295.34;5040131;28;45481;-45
2022/02/03 12:24:19;;;;;;;;;25.75;22.25;;;;;9.89;59.74;101283.13;5039989;28;45288;-43
2022/02/03 12:26:53;;;;;;;;;28.00;24.25;;;;;9.89;59.79;101283.13;5040144;28;45430;-45
2022/02/03 12:29:32;;;;;;;;;27.00;25.75;;;;;9.87;59.82;101270.88;5039526;28;46228;-44
2022/02/03 12:32:16;;;;;;;;;28.50;26.50;;;;;9.85;60.05;101265.63;5039719;28;45317;-45
2022/02/03 12:40:05;;;;;;;;;24.50;23.75;;;;;9.88;60.02;101252.47;5039618;28;45235;-42
2022/02/03 12:45:17;;;;;;;;;24.50;21.00;;;;;9.85;59.89;101256.88;5039656;28;45236;-45
2022/02/03 12:47:46;;;;;;;;;28.00;22.50;;;;;9.82;59.99;101259.50;5039665;28;45406;-46
2022/02/03 12:50:24;;;;;;;;;32.00;28.75;;;;;9.84;59.93;101250.75;5038413;28;48242;-43
2022/02/03 12:52:49;;;;;;;;;28.50;24.00;;;;;9.82;60.03;101249.88;5039594;28;45455;-44
2022/02/03 12:55:20;;;;;;;;;25.00;23.75;;;;;9.85;60.14;101254.25;5038257;28;45461;-44
2022/02/03 12:57:48;;;;;;;;;25.75;24.50;;;;;9.88;60.11;101264.75;5038460;28;45344;-43
2022/02/03 13:00:18;;;;;;;;;23.75;21.50;;;;;9.87;60.08;101249.88;5037584;28;47962;-43
2022/02/03 13:02:52;;;;;;;;;27.50;23.00;;;;;9.87;59.94;101255.13;5038097;28;45399;-46
2022/02/03 13:05:27;;;;;;;;;24.50;23.75;;;;;9.88;59.83;101247.22;5039397;28;45433;-45
2022/02/03 13:07:56;;;;;;;;;30.25;27.00;;;;;9.85;59.87;101239.38;5039363;28;45235;-46
2022/02/03 13:10:24;;;;;;;;;26.75;24.50;;;;;9.86;60.01;101241.13;5039250;28;46200;-43
2022/02/03 13:13:05;;;;;;;;;24.50;23.00;;;;;9.88;59.90;101228.00;5039353;28;45232;-46
2022/02/03 13:15:39;;;;;;;;;27.75;26.75;;;;;9.90;59.98;101226.25;5039412;28;45321;-45
2022/02/03 13:18:10;;;;;;;;;31.75;25.75;;;;;9.90;60.10;101232.38;5039334;28;45594;-47
2022/02/03 13:20:41;;;;;;;;;33.75;24.50;;;;;9.84;60.00;101221.03;5039277;28;45361;-43
2022/02/03 13:23:12;;;;;;;;;28.25;25.50;;;;;9.90;60.26;101240.22;5039339;28;45287;-48
2022/02/03 13:28:14;;;;;;;;;33.25;28.00;;;;;9.89;59.99;101235.84;5038216;28;45583;-46
2022/02/03 13:30:53;;;;;;;;;26.75;23.00;;;;;9.91;60.15;101233.22;5037649;28;45484;-44
2022/02/03 13:33:26;;;;;;;;;28.00;23.50;;;;;9.91;59.87;101226.25;5039309;28;45271;-46
2022/02/03 13:36:28;;;;;;;;;23.25;20.75;;;;;9.90;59.94;101229.75;5039349;28;45341;-44
2022/02/03 13:39:26;;;;;;;;;29.50;25.00;;;;;9.89;59.69;101220.09;5038796;28;45224;-44
2022/02/03 13:41:35;;;;;;;;;26.00;22.50;;;;;9.87;59.99;101221.00;5038365;28;45304;-43
2022/02/03 13:44:09;;;;;;;;;24.25;20.50;;;;;9.87;60.14;101227.13;5038763;28;45290;-43
2022/02/03 13:46:42;;;;;;;;;26.75;19.50;;;;;9.89;60.04;101227.13;5037955;28;45399;-44
2022/02/03 13:49:18;;;;;;;;;25.50;24.50;;;;;9.88;60.13;101220.13;5039156;28;45255;-45
2022/02/03 13:51:47;;;;;;;;;24.25;22.00;;;;;9.85;60.10;101221.00;5038642;28;46438;-44
2022/02/03 14:22:09;;;;;;;;;28.75;25.50;;;;;10.04;59.77;101202.56;5042078;28;45340;-44
2022/02/03 14:27:32;;;;;;;;;26.00;24.50;;;;;10.03;59.76;101196.41;5036170;28;45648;-48
2022/02/03 14:30:14;;;;;;;;;30.25;24.00;;;;;10.05;60.23;101194.66;5041774;28;45264;-47
2022/02/03 14:32:41;;;;;;;;;18.50;17.75;;;;;10.03;60.27;101200.81;5042004;28;45281;-45
2022/02/03 14:35:09;;;;;;;;;26.75;25.25;;;;;10.04;60.04;101203.41;5041820;28;46316;-48
2022/02/03 14:42:38;;;;;;;;;26.50;19.50;;;;;10.00;60.14;101193.81;5041721;28;45684;-47
2022/02/03 14:45:05;;;;;;;;;27.00;25.00;;;;;10.03;60.24;101195.56;5041249;28;46524;-46
2022/02/03 14:47:32;;;;;;;;;23.25;20.50;;;;;10.02;60.27;101194.66;5041947;28;45244;-47
2022/02/03 14:50:01;;;;;;;;;24.25;20.75;;;;;10.06;60.27;101191.16;5040262;28;45311;-44
2022/02/03 14:52:31;;;;;;;;;27.00;20.75;;;;;10.07;59.95;101184.16;5041614;28;45325;-45
2022/02/03 15:00:27;;;;;;;;;27.75;23.50;;;;;10.16;60.08;101185.84;5041434;28;45389;-47
2022/02/03 15:02:52;;;;;;;;;23.50;22.50;;;;;10.16;60.05;101186.75;5041309;28;45511;-45
2022/02/03 15:05:30;;;;;;;;;24.00;23.00;;;;;10.18;59.99;101186.72;5041277;28;45327;-45
2022/02/03 15:07:58;;;;;;;;;24.50;19.00;;;;;10.16;60.21;101191.13;5041517;28;45350;-44
2022/02/03 15:13:01;;;;;;;;;25.25;21.50;;;;;10.19;60.23;101175.34;5040441;28;45232;-45
2022/02/03 15:15:27;;;;;;;;;27.00;22.50;;;;;10.22;60.04;101175.31;5040960;28;45304;-44
2022/02/03 15:17:53;;;;;;;;;26.00;23.25;;;;;10.24;60.18;101173.56;5041122;28;45426;-46
2022/02/03 15:20:18;;;;;;;;;20.75;18.75;;;;;10.28;60.26;101171.81;5041340;28;45220;-44
2022/02/03 15:22:43;;;;;;;;;25.25;18.75;;;;;10.33;60.24;101173.50;5039921;28;45395;-44
2022/02/03 15:25:11;;;;;;;;;27.50;22.00;;;;;10.35;60.01;101169.13;5041014;28;45222;-45
2022/02/03 15:27:36;;;;;;;;;27.25;25.25;;;;;10.39;60.08;101177.91;5040945;28;45472;-44
2022/02/03 15:30:03;;;;;;;;;22.00;18.75;;;;;10.43;60.17;101179.59;5041030;28;45376;-44
2022/02/03 15:32:36;;;;;;;;;31.00;22.75;;;;;10.47;59.92;101180.47;5040801;28;45481;-46
2022/02/03 15:35:04;;;;;;;;;25.50;20.50;;;;;10.50;60.17;101176.06;5040908;28;46347;-46
2022/02/03 15:37:29;;;;;;;;;22.75;21.25;;;;;10.52;60.05;101179.53;5040733;28;45312;-46
2022/02/03 15:40:02;;;;;;;;;18.75;18.25;;;;;10.53;60.10;101181.28;5040831;28;45245;-45
2022/02/03 15:42:29;;;;;;;;;23.50;17.00;;;;;10.52;60.44;101166.41;5039404;28;45374;-47
2022/02/03 15:44:56;;;;;;;;;23.00;20.00;;;;;10.59;60.20;101175.13;5040462;28;45997;-47
2022/02/03 15:47:34;;;;;;;;;20.50;18.25;;;;;10.61;60.12;101173.34;5040916;28;45239;-46
2022/02/03 16:01:20;;;;;;;;;23.00;16.50;;;;;10.75;60.04;101177.63;5040290;28;45301;-44
2022/02/03 16:14:19;;;;;;;;;25.25;22.75;;;;;10.79;59.66;101179.34;5040247;28;45327;-46
2022/02/03 16:19:06;;;;;;;;;23.50;20.00;;;;;10.76;60.04;101172.34;5040129;28;45480;-44
2022/02/03 16:22:14;;;;;;;;;18.00;17.75;;;;;10.80;59.81;101170.56;5038951;28;45318;-46
2022/02/03 16:24:50;;;;;;;;;18.25;17.25;;;;;10.79;59.91;101167.09;5039552;28;45307;-45
2022/02/03 16:51:32;;;;;;;;;23.25;20.50;;;;;10.78;59.74;101178.47;5059582;28;45394;-46
2022/02/03 16:54:01;;;;;;;;;25.75;24.25;;;;;10.77;60.01;101173.22;5035587;28;45208;-45
2022/02/03 16:56:28;;;;;;;;;24.00;21.50;;;;;10.79;59.76;101184.59;5039443;28;45261;-47
2022/02/03 16:58:53;;;;;;;;;23.75;18.75;;;;;10.76;59.70;101182.88;5039226;28;47178;-47
2022/02/03 17:01:19;;;;;;;;;27.00;22.25;;;;;10.78;59.82;101185.47;5039160;28;45310;-46
2022/02/03 17:03:45;;;;;;;;;26.25;24.25;;;;;10.76;59.86;101182.88;5039927;28;45229;-44
2022/02/03 17:06:12;;;;;;;;;26.25;20.25;;;;;10.76;59.78;101182.00;5039352;27;45462;-44
2022/02/03 17:08:38;;;;;;;;;26.75;23.50;;;;;10.75;59.82;101185.50;5039715;28;46369;-44
2022/02/03 17:11:03;;;;;;;;;28.25;23.50;;;;;10.72;60.20;101176.75;5039308;28;45204;-45
2022/02/03 17:13:29;;;;;;;;;30.00;24.75;;;;;10.72;59.95;101179.38;5039759;28;45228;-45
2022/02/03 17:15:54;;;;;;;;;21.75;17.25;;;;;10.76;59.94;101182.88;5037995;28;45454;-45
2022/02/03 17:18:20;;;;;;;;;24.75;21.50;;;;;10.76;59.86;101174.97;5039500;28;45513;-44
2022/02/03 17:20:46;;;;;;;;;26.50;22.50;;;;;10.75;59.86;101181.13;5039443;28;45244;-46
2022/02/03 17:23:16;;;;;;;;;28.00;24.75;;;;;10.75;59.89;101182.88;5039578;28;45311;-44
2022/02/03 17:28:55;;;;;;;;;34.25;30.00;;;;;10.72;59.88;101186.41;5039237;28;46047;-45
2022/02/03 17:31:02;;;;;;;;;30.50;25.50;;;;;10.72;60.32;101195.16;5026231;28;45565;-45
2022/02/03 19:16:17;;;;;;;;;33.75;28.50;;;;;10.32;60.85;101212.91;5041084;28;45940;-42
2022/02/03 20:07:15;;;;;;;;;27.25;24.00;;;;;10.04;61.69;101224.44;5040516;28;45323;-43
2022/02/03 20:09:57;;;;;;;;;28.00;24.25;;;;;10.05;61.49;101220.03;5040143;28;45490;-45
2022/02/03 20:12:23;;;;;;;;;25.75;22.00;;;;;10.04;61.58;101220.94;5040410;28;45398;-45
2022/02/03 20:14:49;;;;;;;;;24.00;22.00;;;;;10.07;61.52;101223.53;5039000;28;45329;-47
2022/02/03 20:17:19;;;;;;;;;32.00;25.50;;;;;10.09;61.54;101221.78;5040520;28;45310;-43
2022/02/03 20:19:45;;;;;;;;;22.75;19.00;;;;;10.12;61.55;101220.91;5040428;28;46078;-44
2022/02/03 20:22:10;;;;;;;;;19.00;19.00;;;;;10.11;61.57;101219.16;5040295;28;45183;-44
2022/02/03 20:24:36;;;;;;;;;21.00;21.00;;;;;10.12;61.61;101220.91;5040387;28;45219;-43
2022/02/03 20:27:02;;;;;;;;;21.00;19.75;;;;;10.09;61.86;101222.66;5040432;28;45616;-43
2022/02/03 20:29:27;;;;;;;;;24.25;22.50;;;;;10.07;61.92;101219.19;5039869;28;45524;-43
2022/02/03 20:31:52;;;;;;;;;26.00;23.25;;;;;10.07;61.81;101226.16;5040186;28;45289;-43
2022/02/03 20:34:18;;;;;;;;;24.50;22.50;;;;;10.06;61.93;101219.16;5040243;28;45219;-43
2022/02/03 20:36:43;;;;;;;;;28.50;25.25;;;;;10.04;61.83;101219.19;5040158;28;45491;-43
2022/02/03 20:39:09;;;;;;;;;28.50;25.75;;;;;10.05;62.01;101226.19;5039792;28;46260;-43
2022/02/03 20:41:34;;;;;;;;;28.25;24.50;;;;;10.06;61.82;101229.66;5039991;28;45414;-44
2022/02/03 20:43:59;;;;;;;;;24.00;19.50;;;;;10.06;61.88;101229.66;5038506;28;45438;-44
2022/02/03 20:46:25;;;;;;;;;28.25;20.75;;;;;10.02;62.12;101220.94;5038867;28;45227;-42
2022/02/03 20:48:51;;;;;;;;;26.50;23.25;;;;;10.02;62.10;101231.44;5039739;28;46983;-45
2022/02/03 20:51:19;;;;;;;;;26.00;25.50;;;;;10.03;62.02;101241.06;5039908;28;45503;-43
2022/02/03 20:53:45;;;;;;;;;21.50;18.75;;;;;10.05;62.15;101235.78;5039948;28;45328;-44
2022/02/03 20:56:15;;;;;;;;;27.25;25.25;;;;;10.04;62.04;101241.94;5039910;28;45540;-48
2022/02/03 20:58:41;;;;;;;;;28.00;26.25;;;;;10.03;62.11;101233.19;5039461;28;46607;-45
2022/02/03 21:03:44;;;;;;;;;28.00;25.50;;;;;10.02;62.26;101239.31;5039950;28;45390;-47
2022/02/03 21:06:10;;;;;;;;;21.75;20.00;;;;;9.97;62.15;101233.19;5039693;28;45376;-48
2022/02/03 21:08:39;;;;;;;;;27.75;22.50;;;;;9.96;62.32;101236.72;5040406;28;45926;-45
2022/02/03 21:11:04;;;;;;;;;23.25;21.00;;;;;9.96;62.48;101241.09;5042965;28;45292;-46
2022/02/03 21:13:29;;;;;;;;;21.00;19.00;;;;;9.91;62.62;101230.59;5043466;28;45915;-46
2022/02/03 21:15:55;;;;;;;;;24.25;22.00;;;;;9.90;62.55;101226.25;5043250;28;45665;-44
2022/02/03 21:18:21;;;;;;;;;27.75;20.75;;;;;9.88;62.44;101225.38;5043153;28;46881;-46
2022/02/03 21:20:47;;;;;;;;;24.00;21.50;;;;;9.87;62.60;101232.38;5043049;28;45386;-43
2022/02/03 21:23:13;;;;;;;;;26.25;22.50;;;;;9.86;62.70;101233.25;5043289;28;45469;-46
2022/02/03 21:25:43;;;;;;;;;18.50;18.25;;;;;9.84;62.60;101237.63;5042919;28;45233;-49
2022/02/03 21:28:26;;;;;;;;;18.75;17.25;;;;;9.83;62.46;101240.28;5043084;28;47092;-43
2022/02/03 21:30:52;;;;;;;;;24.25;19.75;;;;;9.78;62.59;101244.66;5042550;28;45281;-44
2022/02/03 21:33:24;;;;;;;;;22.25;18.75;;;;;9.78;62.88;101236.78;5043057;28;45491;-44
2022/02/03 21:35:51;;;;;;;;;21.75;19.00;;;;;9.73;62.81;101237.66;5042911;28;46221;-48
2022/02/03 21:38:17;;;;;;;;;24.50;19.75;;;;;9.71;62.98;101243.78;5042741;28;46018;-46
2022/02/03 21:40:43;;;;;;;;;23.25;17.25;;;;;9.69;62.98;101238.53;5042449;28;45252;-46
2022/02/03 21:43:09;;;;;;;;;24.50;22.50;;;;;9.68;62.92;101241.19;5042903;28;45270;-44
2022/02/03 21:45:35;;;;;;;;;18.00;16.50;;;;;9.65;62.73;101247.31;5042428;28;45252;-44
2022/02/03 21:48:01;;;;;;;;;20.25;20.25;;;;;9.64;62.66;101249.94;5042689;28;46166;-46
2022/02/03 21:50:33;;;;;;;;;21.75;15.75;;;;;9.63;62.81;101248.19;5042391;28;45337;-43
2022/02/03 21:52:59;;;;;;;;;24.25;22.50;;;;;9.60;63.04;101244.69;5035024;28;45981;-44
2022/02/03 21:55:27;;;;;;;;;17.25;17.00;;;;;9.60;62.92;101244.69;5035020;28;45746;-44
2022/02/03 21:57:55;;;;;;;;;20.25;19.25;;;;;9.55;62.58;101250.84;5037059;28;45477;-44
2022/02/03 22:00:20;;;;;;;;;22.50;20.75;;;;;9.54;63.01;101257.81;5039488;28;45601;-43
2022/02/03 22:02:47;;;;;;;;;20.50;15.50;;;;;9.56;62.92;101249.97;5042120;28;45413;-44
2022/02/03 22:05:13;;;;;;;;;20.25;16.75;;;;;9.54;63.00;101244.69;5030000;28;45254;-44
2022/02/03 22:07:41;;;;;;;;;24.75;19.25;;;;;9.56;62.92;101260.47;5023960;28;45437;-44
2022/02/03 22:10:20;;;;;;;;;15.75;15.75;;;;;9.54;63.17;101255.19;5035833;28;45627;-43
2022/02/03 22:12:46;;;;;;;;;16.75;15.75;;;;;9.54;63.12;101256.94;5040960;28;45383;-43
2022/02/03 22:15:11;;;;;;;;;19.25;18.75;;;;;9.54;63.11;101263.06;5041798;28;45414;-46
2022/02/03 22:17:37;;;;;;;;;20.25;18.75;;;;;9.51;63.10;101254.31;5042016;28;45952;-43
2022/02/03 22:20:08;;;;;;;;;20.25;18.00;;;;;9.53;63.18;101252.56;5040051;28;45322;-44
2022/02/03 22:39:04;;;;;;;;;23.00;20.00;;;;;9.43;63.20;101256.97;5041396;28;45409;-41
2022/02/03 22:49:44;;;;;;;;;22.25;19.00;;;;;9.39;63.41;101257.84;5041396;28;45504;-42
2022/02/03 22:52:11;;;;;;;;;20.75;17.75;;;;;9.35;63.36;101253.50;5036329;28;45378;-41
2022/02/03 22:54:37;;;;;;;;;19.25;18.25;;;;;9.34;63.43;101262.22;5041789;28;45140;-42